createdAt,value
2017-10-15T11:57:21.139Z,18.57
2017-10-15T11:57:34.077Z,18.56
2017-10-15T11:57:46.990Z,18.72
2017-10-15T11:58:00.464Z,18.6
2017-10-15T11:58:13.875Z,18.53
2017-10-15T11:58:26.798Z,18.53
2017-10-15T11:58:39.740Z,18.65
2017-10-15T11:58:53.183Z,18.6
2017-10-15T11:59:06.601Z,18.51
2017-10-15T11:59:18.939Z,18.54
2017-10-15T11:59:32.433Z,18.49
2017-10-15T11:59:45.872Z,18.45
2017-10-15T11:59:59.339Z,18.6
2017-10-15T12:00:12.760Z,18.5
2017-10-15T12:00:26.253Z,18.54
2017-10-15T12:00:39.772Z,18.59
2017-10-15T12:00:52.677Z,18.5
2017-10-15T12:01:05.570Z,18.49
2017-10-15T12:01:19.207Z,18.5
2017-10-15T12:01:32.624Z,18.5
2017-10-15T12:01:46.112Z,18.42
2017-10-15T12:01:59.015Z,18.47
2017-10-15T12:02:12.428Z,18.38
2017-10-15T12:02:25.999Z,18.47
2017-10-15T12:02:39.464Z,18.39
2017-10-15T12:02:52.951Z,18.45
2017-10-15T12:03:05.858Z,18.47
2017-10-15T12:03:19.277Z,18.49
2017-10-15T12:03:31.655Z,18.56
2017-10-15T12:03:46.534Z,18.54
2017-10-15T12:03:59.975Z,18.65
2017-10-15T12:04:13.427Z,18.49
2017-10-15T12:04:26.881Z,18.51
2017-10-15T12:04:40.318Z,18.56
2017-10-15T12:04:53.809Z,18.57
2017-10-15T12:05:06.734Z,18.5
2017-10-15T12:05:19.620Z,18.5
2017-10-15T12:05:33.089Z,18.49
2017-10-15T12:05:46.597Z,18.57
2017-10-15T12:05:58.935Z,18.59
2017-10-15T12:06:12.429Z,18.59
2017-10-15T12:06:25.915Z,18.61
2017-10-15T12:06:39.324Z,18.59
2017-10-15T12:06:52.769Z,18.59
2017-10-15T12:07:06.206Z,18.54
2017-10-15T12:07:19.116Z,18.57
2017-10-15T12:07:32.581Z,18.65
2017-10-15T12:07:45.991Z,18.65
2017-10-15T12:07:59.426Z,18.68
2017-10-15T12:08:11.797Z,18.71
2017-10-15T12:08:25.227Z,18.66
2017-10-15T12:08:38.126Z,18.63
2017-10-15T12:08:51.051Z,18.69
2017-10-15T12:09:04.502Z,18.68
2017-10-15T12:09:17.398Z,18.68
2017-10-15T12:09:30.865Z,18.71
2017-10-15T12:09:44.355Z,18.71
2017-10-15T12:09:57.255Z,18.72
2017-10-15T12:10:10.138Z,18.68
2017-10-15T12:10:23.581Z,18.75
2017-10-15T12:10:37.041Z,18.79
2017-10-15T12:10:49.959Z,18.81
2017-10-15T12:11:03.412Z,18.81
2017-10-15T12:11:15.854Z,18.78
2017-10-15T12:11:29.342Z,18.81
2017-10-15T12:11:42.790Z,18.78
2017-10-15T12:11:56.252Z,18.81
2017-10-15T12:12:07.523Z,18.81
2017-10-15T12:12:21.273Z,18.75
2017-10-15T12:12:34.732Z,18.81
2017-10-15T12:12:48.217Z,18.78
2017-10-15T12:13:01.677Z,18.78
2017-10-15T12:13:14.010Z,18.82
2017-10-15T12:13:27.441Z,18.81
2017-10-15T12:13:40.929Z,18.79
2017-10-15T12:13:53.889Z,18.81
2017-10-15T12:14:06.779Z,18.81
2017-10-15T12:14:19.756Z,18.86
2017-10-15T12:14:32.633Z,18.78
2017-10-15T12:14:46.110Z,18.78
2017-10-15T12:14:59.085Z,18.79
2017-10-15T12:15:12.061Z,18.79
2017-10-15T12:15:24.916Z,18.72
2017-10-15T12:15:36.753Z,18.78
2017-10-15T12:15:50.280Z,18.69
2017-10-15T12:16:03.731Z,18.75
2017-10-15T12:16:17.203Z,18.79
2017-10-15T12:16:30.627Z,18.86
2017-10-15T12:16:44.050Z,18.79
2017-10-15T12:16:57.514Z,18.78
2017-10-15T12:17:09.873Z,18.86
2017-10-15T12:17:23.379Z,18.81
2017-10-15T12:17:36.304Z,18.89
2017-10-15T12:17:49.804Z,18.82
2017-10-15T12:18:02.685Z,18.84
2017-10-15T12:18:15.554Z,18.75
2017-10-15T12:18:28.496Z,18.84
2017-10-15T12:18:42.209Z,18.79
2017-10-15T12:18:55.150Z,18.69
2017-10-15T12:19:08.095Z,18.79
2017-10-15T12:19:21.030Z,18.75
2017-10-15T12:19:33.900Z,18.68
2017-10-15T12:19:47.013Z,18.59
2017-10-15T12:19:59.845Z,18.59
2017-10-15T12:20:11.672Z,18.56
2017-10-15T12:20:24.584Z,18.5
2017-10-15T12:20:37.745Z,18.45
2017-10-15T12:20:51.185Z,18.45
2017-10-15T12:21:04.074Z,18.42
2017-10-15T12:21:16.980Z,18.42
2017-10-15T12:21:30.509Z,18.38
2017-10-15T12:21:43.432Z,18.35
2017-10-15T12:21:56.906Z,18.44
2017-10-15T12:22:10.344Z,18.32
2017-10-15T12:22:23.253Z,18.34
2017-10-15T12:22:35.662Z,18.36
2017-10-15T12:22:48.611Z,18.31
2017-10-15T12:23:01.515Z,18.32
2017-10-15T12:23:14.453Z,18.32
2017-10-15T12:23:27.356Z,18.31
2017-10-15T12:23:41.012Z,18.31
2017-10-15T12:23:54.405Z,18.29
2017-10-15T12:24:07.398Z,18.36
2017-10-15T12:24:20.305Z,18.34
2017-10-15T12:24:33.762Z,18.38
2017-10-15T12:24:47.207Z,18.31
2017-10-15T12:25:00.723Z,18.34
2017-10-15T12:25:14.195Z,18.34
2017-10-15T12:25:27.670Z,18.41
2017-10-15T12:25:40.783Z,18.38
2017-10-15T12:25:54.216Z,18.41
2017-10-15T12:26:07.640Z,18.42
2017-10-15T12:26:21.004Z,18.45
2017-10-15T12:26:34.475Z,18.41
2017-10-15T12:26:47.944Z,18.45
2017-10-15T12:27:01.362Z,18.47
2017-10-15T12:27:14.845Z,18.47
2017-10-15T12:27:28.734Z,18.47
2017-10-15T12:27:41.631Z,18.5
2017-10-15T12:27:54.524Z,18.51
2017-10-15T12:28:07.449Z,18.61
2017-10-15T12:28:20.862Z,18.5
2017-10-15T12:28:33.755Z,18.47
2017-10-15T12:28:47.234Z,18.49
2017-10-15T12:29:00.089Z,18.56
2017-10-15T12:29:13.604Z,18.63
2017-10-15T12:29:27.011Z,18.59
2017-10-15T12:29:40.456Z,18.56
2017-10-15T12:29:52.850Z,18.68
2017-10-15T12:30:06.292Z,18.63
2017-10-15T12:30:18.701Z,18.71
2017-10-15T12:30:31.558Z,18.68
2017-10-15T12:30:44.956Z,18.75
2017-10-15T12:30:57.337Z,18.74
2017-10-15T12:31:10.792Z,18.78
2017-10-15T12:31:24.277Z,18.82
2017-10-15T12:31:37.752Z,18.79
2017-10-15T12:31:51.177Z,18.86
2017-10-15T12:32:04.653Z,18.87
2017-10-15T12:32:17.553Z,18.79
2017-10-15T12:32:31.047Z,18.84
2017-10-15T12:32:43.988Z,18.81
2017-10-15T12:32:56.907Z,18.86
2017-10-15T12:33:10.297Z,18.86
2017-10-15T12:33:23.722Z,18.89
2017-10-15T12:33:36.604Z,18.93
2017-10-15T12:33:49.753Z,18.94
2017-10-15T12:34:03.223Z,18.96
2017-10-15T12:34:16.081Z,19.02
2017-10-15T12:34:29.594Z,19.09
2017-10-15T12:34:43.032Z,19.16
2017-10-15T12:34:59.519Z,19.23
2017-10-15T12:35:13.011Z,19.19
2017-10-15T12:35:26.479Z,19.3
2017-10-15T12:35:39.956Z,19.32
2017-10-15T12:35:52.838Z,19.45
2017-10-15T12:36:06.316Z,19.38
2017-10-15T12:36:19.815Z,19.42
2017-10-15T12:36:33.265Z,19.4
2017-10-15T12:36:46.126Z,19.37
2017-10-15T12:36:59.011Z,19.43
2017-10-15T12:37:11.429Z,19.47
2017-10-15T12:37:24.871Z,19.42
2017-10-15T12:37:38.335Z,19.45
2017-10-15T12:37:51.214Z,19.42
2017-10-15T12:38:04.191Z,19.46
2017-10-15T12:38:16.612Z,19.47
2017-10-15T12:38:29.511Z,19.38
2017-10-15T12:38:42.431Z,19.37
2017-10-15T12:38:54.797Z,19.4
2017-10-15T12:39:08.214Z,19.5
2017-10-15T12:39:21.686Z,19.42
2017-10-15T12:39:34.575Z,19.45
2017-10-15T12:39:47.981Z,19.42
2017-10-15T12:40:01.401Z,19.5
2017-10-15T12:40:14.320Z,19.53
2017-10-15T12:40:27.248Z,19.64
2017-10-15T12:40:40.159Z,19.65
2017-10-15T12:40:53.575Z,19.68
2017-10-15T12:41:05.964Z,19.65
2017-10-15T12:41:19.456Z,19.7
2017-10-15T12:41:32.902Z,19.75
2017-10-15T12:41:46.357Z,19.72
2017-10-15T12:41:59.281Z,19.8
2017-10-15T12:42:11.642Z,19.9
2017-10-15T12:42:24.584Z,19.85
2017-10-15T12:42:38.338Z,19.86
2017-10-15T12:42:51.220Z,20
2017-10-15T12:43:04.707Z,19.98
2017-10-15T12:43:18.215Z,19.98
2017-10-15T12:43:31.103Z,20.1
2017-10-15T12:43:44.022Z,20.08
2017-10-15T12:43:57.518Z,20.15
2017-10-15T12:44:10.378Z,20.12
2017-10-15T12:44:23.503Z,20.23
2017-10-15T12:44:36.393Z,20.25
2017-10-15T12:44:49.300Z,20.26
2017-10-15T12:45:02.753Z,20.29
2017-10-15T12:45:16.169Z,20.32
2017-10-15T12:45:29.066Z,20.3
2017-10-15T12:45:41.991Z,20.23
2017-10-15T12:45:55.428Z,20.25
2017-10-15T12:46:08.870Z,20.3
2017-10-15T12:46:21.816Z,20.37
2017-10-15T12:46:34.742Z,20.37
2017-10-15T12:46:48.177Z,20.4
2017-10-15T12:47:01.638Z,20.41
2017-10-15T12:47:15.155Z,20.46
2017-10-15T12:47:28.063Z,20.41
2017-10-15T12:47:41.572Z,20.56
2017-10-15T12:47:55.020Z,20.63
2017-10-15T12:48:07.951Z,20.63
2017-10-15T12:48:21.409Z,20.64
2017-10-15T12:48:34.318Z,20.61
2017-10-15T12:48:47.833Z,20.56
2017-10-15T12:49:01.321Z,20.53
2017-10-15T12:49:14.758Z,20.57
2017-10-15T12:49:27.701Z,20.63
2017-10-15T12:49:41.133Z,20.64
2017-10-15T12:49:54.047Z,20.57
2017-10-15T12:50:07.528Z,20.67
2017-10-15T12:50:21.032Z,20.63
2017-10-15T12:50:34.506Z,20.61
2017-10-15T12:50:47.920Z,20.6
2017-10-15T12:51:01.352Z,20.66
2017-10-15T12:51:14.297Z,20.64
2017-10-15T12:51:27.274Z,20.66
2017-10-15T12:51:40.711Z,20.61
2017-10-15T12:51:53.680Z,20.72
2017-10-15T12:52:07.127Z,20.68
2017-10-15T12:52:20.579Z,20.74
2017-10-15T12:52:34.129Z,20.76
2017-10-15T12:52:47.670Z,20.79
2017-10-15T12:53:01.072Z,20.82
2017-10-15T12:53:13.459Z,20.76
2017-10-15T12:53:26.443Z,20.76
2017-10-15T12:53:39.354Z,20.79
2017-10-15T12:53:52.821Z,20.83
2017-10-15T12:54:06.255Z,20.91
2017-10-15T12:54:19.712Z,20.86
2017-10-15T12:54:33.181Z,20.9
2017-10-15T12:54:46.094Z,20.91
2017-10-15T12:54:58.973Z,20.93
2017-10-15T12:55:12.403Z,20.94
2017-10-15T12:55:25.899Z,20.94
2017-10-15T12:55:39.304Z,20.94
2017-10-15T12:55:52.701Z,20.91
2017-10-15T12:56:05.666Z,20.86
2017-10-15T12:56:18.556Z,20.91
2017-10-15T12:56:31.758Z,20.82
2017-10-15T12:56:44.710Z,20.88
2017-10-15T12:56:58.181Z,20.85
2017-10-15T12:57:11.062Z,20.85
2017-10-15T12:57:24.490Z,20.9
2017-10-15T12:57:37.314Z,20.85
2017-10-15T12:57:51.068Z,20.9
2017-10-15T12:58:03.446Z,20.97
2017-10-15T12:58:16.909Z,21.08
2017-10-15T12:58:30.346Z,21.13
2017-10-15T12:58:43.782Z,21.18
2017-10-15T12:58:57.257Z,21.11
2017-10-15T12:59:10.267Z,21.09
2017-10-15T12:59:23.726Z,21.03
2017-10-15T12:59:37.177Z,21.11
2017-10-15T12:59:50.644Z,21.13
2017-10-15T13:00:04.102Z,21.06
2017-10-15T13:00:17.607Z,21.08
2017-10-15T13:00:30.564Z,21.03
2017-10-15T13:00:44.023Z,20.97
2017-10-15T13:00:55.874Z,21.08
2017-10-15T13:01:08.750Z,20.86
2017-10-15T13:01:22.169Z,20.96
2017-10-15T13:01:35.568Z,20.93
2017-10-15T13:01:49.091Z,20.86
2017-10-15T13:02:01.460Z,20.83
2017-10-15T13:02:13.831Z,20.78
2017-10-15T13:02:27.292Z,20.81
2017-10-15T13:02:40.263Z,20.81
2017-10-15T13:02:53.201Z,20.79
2017-10-15T13:03:06.148Z,20.82
2017-10-15T13:03:19.048Z,20.82
2017-10-15T13:03:31.940Z,20.82
2017-10-15T13:03:44.844Z,20.86
2017-10-15T13:03:58.202Z,20.91
2017-10-15T13:04:11.673Z,20.94
2017-10-15T13:04:24.593Z,20.91
2017-10-15T13:04:38.018Z,20.88
2017-10-15T13:04:50.947Z,20.9
2017-10-15T13:05:04.444Z,20.88
2017-10-15T13:05:17.348Z,20.9
2017-10-15T13:05:29.671Z,20.91
2017-10-15T13:05:42.595Z,20.96
2017-10-15T13:05:55.479Z,20.85
2017-10-15T13:06:08.911Z,20.85
2017-10-15T13:06:21.846Z,20.82
2017-10-15T13:06:35.244Z,20.86
2017-10-15T13:06:48.207Z,20.83
2017-10-15T13:07:01.608Z,20.81
2017-10-15T13:07:15.055Z,20.78
2017-10-15T13:07:28.521Z,20.79
2017-10-15T13:07:41.432Z,20.83
2017-10-15T13:07:54.543Z,20.79
2017-10-15T13:08:07.940Z,20.76
2017-10-15T13:08:20.812Z,20.81
2017-10-15T13:08:34.292Z,20.83
2017-10-15T13:08:47.758Z,20.85
2017-10-15T13:09:00.155Z,20.75
2017-10-15T13:09:13.107Z,20.82
2017-10-15T13:09:26.533Z,20.85
2017-10-15T13:09:40.008Z,20.9
2017-10-15T13:09:52.383Z,20.79
2017-10-15T13:10:05.331Z,20.82
2017-10-15T13:10:18.811Z,20.82
2017-10-15T13:10:31.739Z,20.83
2017-10-15T13:10:45.127Z,20.85
2017-10-15T13:10:58.547Z,20.9
2017-10-15T13:11:11.964Z,20.85
2017-10-15T13:11:25.418Z,20.88
2017-10-15T13:11:38.884Z,20.81
2017-10-15T13:11:51.207Z,20.83
2017-10-15T13:12:04.167Z,20.83
2017-10-15T13:12:17.601Z,20.79
2017-10-15T13:12:31.046Z,20.76
2017-10-15T13:12:43.954Z,20.72
2017-10-15T13:12:57.588Z,20.81
2017-10-15T13:13:11.035Z,20.79
2017-10-15T13:13:24.489Z,20.78
2017-10-15T13:13:37.936Z,20.78
2017-10-15T13:13:50.847Z,20.85
2017-10-15T13:14:03.768Z,20.83
2017-10-15T13:14:16.655Z,20.78
2017-10-15T13:14:30.114Z,20.81
2017-10-15T13:14:42.482Z,20.76
2017-10-15T13:14:55.977Z,20.83
2017-10-15T13:15:09.397Z,20.74
2017-10-15T13:15:22.857Z,20.64
2017-10-15T13:15:36.268Z,20.74
2017-10-15T13:15:49.722Z,20.67
2017-10-15T13:16:03.166Z,20.71
2017-10-15T13:16:16.092Z,20.64
2017-10-15T13:16:29.500Z,20.64
2017-10-15T13:16:42.918Z,20.61
2017-10-15T13:16:56.312Z,20.56
2017-10-15T13:17:09.755Z,20.76
2017-10-15T13:17:23.206Z,20.64
2017-10-15T13:17:36.680Z,20.64
2017-10-15T13:17:50.139Z,20.61
2017-10-15T13:18:03.164Z,20.67
2017-10-15T13:18:15.027Z,20.64
2017-10-15T13:18:28.496Z,20.66
2017-10-15T13:18:41.916Z,20.63
2017-10-15T13:18:54.816Z,20.58
2017-10-15T13:19:07.705Z,20.6
2017-10-15T13:19:21.145Z,20.51
2017-10-15T13:19:34.025Z,20.51
2017-10-15T13:19:46.946Z,20.49
2017-10-15T13:20:00.448Z,20.49
2017-10-15T13:20:13.358Z,20.53
2017-10-15T13:20:26.216Z,20.51
2017-10-15T13:20:39.660Z,20.41
2017-10-15T13:20:52.528Z,20.37
2017-10-15T13:21:05.422Z,20.34
2017-10-15T13:21:18.312Z,20.32
2017-10-15T13:21:31.172Z,20.3
2017-10-15T13:21:43.533Z,20.2
2017-10-15T13:21:56.980Z,20.2
2017-10-15T13:22:09.882Z,20.23
2017-10-15T13:22:23.360Z,20.15
2017-10-15T13:22:36.310Z,20.16
2017-10-15T13:22:49.827Z,20.15
2017-10-15T13:23:03.275Z,20.2
2017-10-15T13:23:16.171Z,20.16
2017-10-15T13:23:29.857Z,20.19
2017-10-15T13:23:43.333Z,20.12
2017-10-15T13:23:56.762Z,20.22
2017-10-15T13:24:09.707Z,20.18
2017-10-15T13:24:23.113Z,20.29
2017-10-15T13:24:35.993Z,20.27
2017-10-15T13:24:49.487Z,20.32
2017-10-15T13:25:02.391Z,20.3
2017-10-15T13:25:15.250Z,20.34
2017-10-15T13:25:28.703Z,20.34
2017-10-15T13:25:42.151Z,20.3
2017-10-15T13:25:55.072Z,20.27
2017-10-15T13:26:08.554Z,20.19
2017-10-15T13:26:21.960Z,20.22
2017-10-15T13:26:35.376Z,20.2
2017-10-15T13:26:48.853Z,20.25
2017-10-15T13:27:01.740Z,20.2
2017-10-15T13:27:15.190Z,20.19
2017-10-15T13:27:27.547Z,20.25
2017-10-15T13:27:40.399Z,20.18
2017-10-15T13:27:53.339Z,20.27
2017-10-15T13:28:06.979Z,20.26
2017-10-15T13:28:20.423Z,20.27
2017-10-15T13:28:33.337Z,20.23
2017-10-15T13:28:46.831Z,20.3
2017-10-15T13:29:00.290Z,20.25
2017-10-15T13:29:13.185Z,20.19
2017-10-15T13:29:26.674Z,20.2
2017-10-15T13:29:40.116Z,20.2
2017-10-15T13:29:53.577Z,20.19
2017-10-15T13:30:06.977Z,20.18
2017-10-15T13:30:19.371Z,20.15
2017-10-15T13:30:32.314Z,20.2
2017-10-15T13:30:45.730Z,20.19
2017-10-15T13:30:58.668Z,20.18
2017-10-15T13:31:11.621Z,20.2
2017-10-15T13:31:23.973Z,20.16
2017-10-15T13:31:36.880Z,20.19
2017-10-15T13:31:50.268Z,20.18
2017-10-15T13:32:03.733Z,20.26
2017-10-15T13:32:16.649Z,20.23
2017-10-15T13:32:29.531Z,20.29
2017-10-15T13:32:43.016Z,20.26
2017-10-15T13:32:55.887Z,20.3
2017-10-15T13:33:08.752Z,20.22
2017-10-15T13:33:21.737Z,20.23
2017-10-15T13:33:34.682Z,20.3
2017-10-15T13:33:48.109Z,20.23
2017-10-15T13:34:01.597Z,20.27
2017-10-15T13:34:14.479Z,20.25
2017-10-15T13:34:27.437Z,20.23
2017-10-15T13:34:40.836Z,20.27
2017-10-15T13:34:53.199Z,20.16
2017-10-15T13:35:06.710Z,20.18
2017-10-15T13:35:20.214Z,20.23
2017-10-15T13:35:33.626Z,20.2
2017-10-15T13:35:47.032Z,20.2
2017-10-15T13:35:59.952Z,20.2
2017-10-15T13:36:12.801Z,20.16
2017-10-15T13:36:26.168Z,20.18
2017-10-15T13:36:39.645Z,20.08
2017-10-15T13:36:52.585Z,20.08
2017-10-15T13:37:06.050Z,20.08
2017-10-15T13:37:18.386Z,20.05
2017-10-15T13:37:30.251Z,20
2017-10-15T13:37:43.760Z,19.92
2017-10-15T13:37:57.173Z,19.78
2017-10-15T13:38:10.106Z,19.74
2017-10-15T13:38:23.625Z,19.72
2017-10-15T13:38:37.146Z,19.7
2017-10-15T13:38:50.623Z,19.61
2017-10-15T13:39:03.559Z,19.57
2017-10-15T13:39:15.932Z,19.53
2017-10-15T13:39:28.840Z,19.43
2017-10-15T13:39:42.255Z,19.47
2017-10-15T13:39:54.598Z,19.4
2017-10-15T13:40:07.999Z,19.46
2017-10-15T13:40:21.455Z,19.37
2017-10-15T13:40:34.898Z,19.42
2017-10-15T13:40:48.311Z,19.45
2017-10-15T13:41:01.173Z,19.4
2017-10-15T13:41:14.614Z,19.45
2017-10-15T13:41:28.118Z,19.38
2017-10-15T13:41:41.010Z,19.37
2017-10-15T13:41:53.927Z,19.45
2017-10-15T13:42:07.397Z,19.43
2017-10-15T13:42:19.288Z,19.42
2017-10-15T13:42:32.772Z,19.46
2017-10-15T13:42:45.662Z,19.42
2017-10-15T13:42:58.545Z,19.38
2017-10-15T13:43:12.124Z,19.46
2017-10-15T13:43:25.540Z,19.4
2017-10-15T13:43:38.943Z,19.43
2017-10-15T13:43:52.454Z,19.4
2017-10-15T13:44:05.952Z,19.37
2017-10-15T13:44:18.924Z,19.5
2017-10-15T13:44:32.365Z,19.55
2017-10-15T13:44:45.812Z,19.49
2017-10-15T13:44:59.255Z,19.52
2017-10-15T13:45:12.386Z,19.52
2017-10-15T13:45:25.820Z,19.53
2017-10-15T13:45:39.250Z,19.45
2017-10-15T13:45:52.159Z,19.49
2017-10-15T13:46:04.573Z,19.5
2017-10-15T13:46:18.014Z,19.46
2017-10-15T13:46:31.492Z,19.52
2017-10-15T13:46:44.956Z,19.53
2017-10-15T13:46:57.875Z,19.6
2017-10-15T13:47:11.261Z,19.65
2017-10-15T13:47:24.200Z,19.56
2017-10-15T13:47:37.136Z,19.6
2017-10-15T13:47:50.811Z,19.57
2017-10-15T13:48:03.698Z,19.53
2017-10-15T13:48:17.256Z,19.61
2017-10-15T13:48:30.643Z,19.68
2017-10-15T13:48:43.566Z,19.64
2017-10-15T13:48:57.078Z,19.65
2017-10-15T13:49:10.586Z,19.68
2017-10-15T13:49:24.029Z,19.65
2017-10-15T13:49:36.909Z,19.68
2017-10-15T13:49:50.323Z,19.67
2017-10-15T13:50:03.766Z,19.71
2017-10-15T13:50:17.287Z,19.75
2017-10-15T13:50:30.748Z,19.67
2017-10-15T13:50:44.212Z,19.71
2017-10-15T13:50:57.121Z,19.72
2017-10-15T13:51:09.475Z,19.68
2017-10-15T13:51:22.893Z,19.72
2017-10-15T13:51:35.794Z,19.75
2017-10-15T13:51:49.276Z,19.79
2017-10-15T13:52:02.149Z,19.82
2017-10-15T13:52:15.045Z,19.86
2017-10-15T13:52:28.517Z,19.87
2017-10-15T13:52:41.384Z,19.86
2017-10-15T13:52:54.292Z,19.85
2017-10-15T13:53:07.707Z,19.87
2017-10-15T13:53:20.093Z,19.83
2017-10-15T13:53:33.577Z,19.92
2017-10-15T13:53:47.021Z,19.83
2017-10-15T13:54:00.469Z,19.83
2017-10-15T13:54:13.909Z,19.87
2017-10-15T13:54:27.393Z,19.82
2017-10-15T13:54:40.833Z,19.86
2017-10-15T13:54:54.332Z,19.8
2017-10-15T13:55:07.762Z,19.82
2017-10-15T13:55:21.235Z,19.8
2017-10-15T13:55:34.684Z,19.82
2017-10-15T13:55:48.112Z,19.85
2017-10-15T13:56:01.562Z,19.75
2017-10-15T13:56:15.051Z,19.79
2017-10-15T13:56:28.512Z,19.72
2017-10-15T13:56:41.384Z,19.79
2017-10-15T13:56:53.778Z,19.78
2017-10-15T13:57:06.146Z,19.74
2017-10-15T13:57:19.103Z,19.75
2017-10-15T13:57:32.026Z,19.75
2017-10-15T13:57:45.468Z,19.72
2017-10-15T13:57:58.366Z,19.78
2017-10-15T13:58:12.009Z,19.82
2017-10-15T13:58:24.971Z,19.82
2017-10-15T13:58:38.437Z,19.85
2017-10-15T13:58:51.354Z,19.82
2017-10-15T13:59:04.823Z,19.8
2017-10-15T13:59:18.225Z,19.85
2017-10-15T13:59:31.621Z,19.75
2017-10-15T13:59:44.477Z,19.82
2017-10-15T13:59:56.842Z,19.79
2017-10-15T14:00:09.203Z,19.74
2017-10-15T14:00:22.725Z,19.71
2017-10-15T14:00:36.198Z,19.72
2017-10-15T14:00:49.592Z,19.72
2017-10-15T14:01:01.980Z,19.72
2017-10-15T14:01:15.436Z,19.75
2017-10-15T14:01:28.898Z,19.79
2017-10-15T14:01:42.337Z,19.78
2017-10-15T14:01:54.741Z,19.72
2017-10-15T14:02:07.632Z,19.78
2017-10-15T14:02:20.485Z,19.75
2017-10-15T14:02:33.992Z,19.71
2017-10-15T14:02:47.402Z,19.72
2017-10-15T14:03:00.363Z,19.71
2017-10-15T14:03:13.809Z,19.82
2017-10-15T14:03:27.222Z,19.82
2017-10-15T14:03:40.624Z,19.78
2017-10-15T14:03:53.499Z,19.79
2017-10-15T14:04:06.972Z,19.82
2017-10-15T14:04:20.421Z,19.89
2017-10-15T14:04:33.939Z,19.89
2017-10-15T14:04:47.336Z,19.87
2017-10-15T14:05:00.229Z,19.86
2017-10-15T14:05:13.395Z,19.9
2017-10-15T14:05:26.305Z,19.83
2017-10-15T14:05:39.766Z,19.8
2017-10-15T14:05:52.712Z,19.89
2017-10-15T14:06:05.570Z,19.9
2017-10-15T14:06:19.058Z,19.98
2017-10-15T14:06:32.550Z,19.92
2017-10-15T14:06:45.449Z,19.78
2017-10-15T14:06:58.375Z,19.9
2017-10-15T14:07:11.276Z,19.86
2017-10-15T14:07:24.692Z,19.89
2017-10-15T14:07:38.121Z,19.86
2017-10-15T14:07:51.082Z,19.86
2017-10-15T14:08:04.559Z,19.83
2017-10-15T14:08:15.945Z,19.87
2017-10-15T14:08:29.365Z,19.86
2017-10-15T14:08:42.842Z,19.87
2017-10-15T14:08:55.215Z,19.79
2017-10-15T14:09:08.080Z,19.78
2017-10-15T14:09:21.020Z,19.8
2017-10-15T14:09:33.893Z,19.78
2017-10-15T14:09:47.337Z,19.82
2017-10-15T14:10:00.852Z,19.75
2017-10-15T14:10:14.285Z,19.82
2017-10-15T14:10:27.221Z,19.78
2017-10-15T14:10:40.655Z,19.74
2017-10-15T14:10:54.143Z,19.74
2017-10-15T14:11:06.527Z,19.9
2017-10-15T14:11:20.037Z,19.74
2017-10-15T14:11:33.531Z,19.68
2017-10-15T14:11:46.983Z,19.67
2017-10-15T14:12:00.535Z,19.67
2017-10-15T14:12:13.485Z,19.64
2017-10-15T14:12:26.921Z,19.6
2017-10-15T14:12:39.256Z,19.5
2017-10-15T14:12:52.691Z,19.46
2017-10-15T14:13:05.057Z,19.47
2017-10-15T14:13:19.555Z,19.4
2017-10-15T14:13:33.007Z,19.5
2017-10-15T14:13:46.455Z,19.38
2017-10-15T14:13:59.828Z,19.5
2017-10-15T14:14:13.258Z,19.4
2017-10-15T14:14:26.697Z,19.46
2017-10-15T14:14:40.169Z,19.42
2017-10-15T14:14:53.625Z,19.42
2017-10-15T14:15:07.031Z,19.46
2017-10-15T14:15:20.386Z,19.49
2017-10-15T14:15:33.284Z,19.42
2017-10-15T14:15:46.210Z,19.38
2017-10-15T14:15:58.565Z,19.4
2017-10-15T14:16:11.457Z,19.34
2017-10-15T14:16:23.823Z,19.38
2017-10-15T14:16:36.731Z,19.45
2017-10-15T14:16:50.216Z,19.43
2017-10-15T14:17:03.185Z,19.45
2017-10-15T14:17:15.549Z,19.45
2017-10-15T14:17:27.928Z,19.45
2017-10-15T14:17:41.401Z,19.45
2017-10-15T14:17:54.870Z,19.42
2017-10-15T14:18:08.375Z,19.4
2017-10-15T14:18:20.890Z,19.45
2017-10-15T14:18:34.332Z,19.43
2017-10-15T14:18:47.799Z,19.43
2017-10-15T14:19:00.675Z,19.42
2017-10-15T14:19:14.125Z,19.4
2017-10-15T14:19:27.535Z,19.46
2017-10-15T14:19:39.943Z,19.45
2017-10-15T14:19:53.387Z,19.42
2017-10-15T14:20:06.844Z,19.4
2017-10-15T14:20:20.308Z,19.5
2017-10-15T14:20:33.242Z,19.5
2017-10-15T14:20:46.670Z,19.53
2017-10-15T14:20:59.011Z,19.53
2017-10-15T14:21:11.341Z,19.61
2017-10-15T14:21:24.773Z,19.64
2017-10-15T14:21:37.717Z,19.57
2017-10-15T14:21:51.183Z,19.56
2017-10-15T14:22:04.129Z,19.57
2017-10-15T14:22:17.043Z,19.61
2017-10-15T14:22:30.454Z,19.67
2017-10-15T14:22:42.271Z,19.67
2017-10-15T14:22:55.714Z,19.63
2017-10-15T14:23:09.096Z,19.67
2017-10-15T14:23:22.577Z,19.67
2017-10-15T14:23:35.476Z,19.72
2017-10-15T14:23:48.945Z,19.71
2017-10-15T14:24:02.387Z,19.74
2017-10-15T14:24:15.290Z,19.78
2017-10-15T14:24:28.765Z,19.86
2017-10-15T14:24:41.631Z,19.75
2017-10-15T14:24:55.023Z,19.86
2017-10-15T14:25:07.906Z,19.9
2017-10-15T14:25:20.301Z,19.83
2017-10-15T14:25:32.669Z,19.85
2017-10-15T14:25:44.984Z,19.9
2017-10-15T14:25:58.489Z,19.78
2017-10-15T14:26:12.044Z,19.79
2017-10-15T14:26:24.971Z,19.78
2017-10-15T14:26:37.849Z,19.74
2017-10-15T14:26:51.276Z,19.7
2017-10-15T14:27:04.755Z,19.7
2017-10-15T14:27:17.661Z,19.7
2017-10-15T14:27:30.524Z,19.68
2017-10-15T14:27:43.407Z,19.71
2017-10-15T14:27:56.852Z,19.65
2017-10-15T14:28:10.298Z,19.74
2017-10-15T14:28:23.919Z,19.68
2017-10-15T14:28:37.402Z,19.72
2017-10-15T14:28:50.910Z,19.7
2017-10-15T14:29:03.813Z,19.79
2017-10-15T14:29:16.158Z,19.78
2017-10-15T14:29:29.607Z,19.82
2017-10-15T14:29:43.089Z,19.89
2017-10-15T14:29:55.992Z,19.87
2017-10-15T14:30:08.919Z,19.8
2017-10-15T14:30:22.310Z,19.93
2017-10-15T14:30:35.170Z,19.95
2017-10-15T14:30:48.061Z,20.01
2017-10-15T14:31:01.464Z,19.93
2017-10-15T14:31:14.325Z,20.1
2017-10-15T14:31:27.827Z,20.04
2017-10-15T14:31:40.724Z,20.08
2017-10-15T14:31:53.633Z,20.02
2017-10-15T14:32:07.112Z,19.93
2017-10-15T14:32:20.597Z,20
2017-10-15T14:32:34.037Z,20.01
2017-10-15T14:32:47.522Z,20
2017-10-15T14:33:00.945Z,20
2017-10-15T14:33:13.308Z,19.97
2017-10-15T14:33:25.691Z,19.93
2017-10-15T14:33:38.568Z,19.98
2017-10-15T14:33:52.071Z,19.95
2017-10-15T14:34:05.001Z,19.92
2017-10-15T14:34:18.472Z,20.04
2017-10-15T14:34:31.385Z,19.92
2017-10-15T14:34:44.814Z,20.01
2017-10-15T14:34:58.313Z,20.1
2017-10-15T14:35:11.204Z,20.07
2017-10-15T14:35:24.629Z,20.04
2017-10-15T14:35:37.547Z,20.04
2017-10-15T14:35:51.020Z,20.08
2017-10-15T14:36:04.139Z,20.07
2017-10-15T14:36:17.041Z,19.95
2017-10-15T14:36:30.495Z,20.05
2017-10-15T14:36:43.962Z,19.97
2017-10-15T14:36:57.462Z,20.01
2017-10-15T14:37:10.371Z,20.04
2017-10-15T14:37:23.798Z,19.93
2017-10-15T14:37:37.221Z,20
2017-10-15T14:37:50.144Z,19.98
2017-10-15T14:38:02.528Z,20.08
2017-10-15T14:38:15.963Z,20.08
2017-10-15T14:38:29.414Z,20.02
2017-10-15T14:38:42.900Z,20.12
2017-10-15T14:38:56.332Z,20.12
2017-10-15T14:39:09.749Z,20.1
2017-10-15T14:39:23.221Z,20.12
2017-10-15T14:39:36.717Z,20.08
2017-10-15T14:39:49.770Z,20.08
2017-10-15T14:40:03.207Z,20.12
2017-10-15T14:40:16.153Z,20.19
2017-10-15T14:40:29.649Z,20.19
2017-10-15T14:40:43.090Z,20.08
2017-10-15T14:40:56.494Z,20.15
2017-10-15T14:41:08.877Z,20.2
2017-10-15T14:41:22.375Z,20.12
2017-10-15T14:41:35.800Z,20.18
2017-10-15T14:41:49.272Z,20.16
2017-10-15T14:42:02.197Z,20.19
2017-10-15T14:42:15.670Z,20.18
2017-10-15T14:42:29.119Z,20.18
2017-10-15T14:42:42.614Z,20.26
2017-10-15T14:42:55.507Z,20.27
2017-10-15T14:43:08.382Z,20.26
2017-10-15T14:43:21.283Z,20.22
2017-10-15T14:43:35.366Z,20.27
2017-10-15T14:43:48.291Z,20.23
2017-10-15T14:44:01.806Z,20.2
2017-10-15T14:44:14.708Z,20.23
2017-10-15T14:44:28.200Z,20.2
2017-10-15T14:44:41.102Z,20.19
2017-10-15T14:44:54.612Z,20.19
2017-10-15T14:45:08.053Z,20.15
2017-10-15T14:45:21.538Z,20.19
2017-10-15T14:45:34.470Z,20.12
2017-10-15T14:45:47.401Z,20.18
2017-10-15T14:46:00.858Z,20.08
2017-10-15T14:46:14.296Z,20.15
2017-10-15T14:46:26.646Z,20.12
2017-10-15T14:46:40.063Z,19.97
2017-10-15T14:46:53.517Z,20.11
2017-10-15T14:47:06.417Z,19.98
2017-10-15T14:47:19.902Z,20.08
2017-10-15T14:47:32.771Z,20.05
2017-10-15T14:47:44.607Z,20.05